Дата Пункты Температура Давл., мм. Влажн., % Ветер Погодные явления
Воздуха Воды Направл. Скорость
05.01.20 02:00 Одесса 3.0 7.0 756 86 З 2 02 ГОДИНИ
04.01.20 11:00 Одесса 3.0 7.0 756 77 З 1 23 ГОДИНИ
04.01.20 08:00 Одесса 2.0 7.0 757 78 З 3 20 ГОДИН
04.01.20 05:00 Одесса 1.0 7.0 757 83 З 2 17 ГОДИН
04.01.20 02:00 Одесса 2.0 7.0 757 76 Пн 0 14 ГОДИН
03.01.20 11:00 Одесса 1.0 7.0 761 83 Пн-С 4 23 ГОДИНИ
03.01.20 08:00 Одесса 1.0 7.0 761 83 Пн-С 4 20 ГОДИН
03.01.20 05:00 Одесса 2.0 7.0 762 83 Пн-С 3 17 ГОДИН
03.01.20 02:00 Одесса 4.0 7.0 761 72 Пн 2 14 ГОДИН
03.01.20 11:00 Одесса 3.0 6.0 763 71 Пн 3 11 ГОДИН
03.01.20 05:00 Одесса -1.0 6.0 763 82 З 2 05 ГОДИН
03.01.20 02:00 Одесса -1.0 6.0 764 85 З 2 02 ГОДИНИ
02.01.20 08:00 Одесса 2.0 7.0 767 76 З 2 20 ГОДИН
02.01.20 05:00 Одесса 1.0 7.0 767 76 Пн 0 17 ГОДИН
02.01.20 02:00 Одесса 4.0 7.0 767 65 З 1 14 ГОДИН
02.01.20 11:00 Одесса 3.0 6.0 769 70 З 1 11 ГОДИН
02.01.20 08:00 Одесса -3.0 6.0 769 90 З 2 08 ГОДИН
02.01.20 05:00 Одесса -2.0 7.0 768 84 Пн-З 2 05 ГОДИН
02.01.20 02:00 Одесса 1.0 7.0 768 75 Пн-З 4 02 ГОДИНИ
01.01.20 11:00 Одесса 1.0 7.0 767 72 Пн-З 3 23 ГОДИНИ
Количество строк
1 2 3 4 5 6 7 8 9 10
Page 9 of 579